Time;durP1;ratioP1;P1;durP2;ratioP2;P2;SDS_P1;SDS_P2;PMS_P1;PMS_P2;Temp;Humidity;BMP_temperature;BMP_pressure;BME280_temperature;BME280_humidity;BME280_pressure;Samples;Min_cycle;Max_cycle;Signal;HPM_P1;HPM_P2
2022/03/18 00:02:17;;;;;;;20.67;8.20;;;;;;;16.35;36.19;103535.38;5058977;28;20036;-77
2022/03/18 00:04:43;;;;;;;23.13;8.27;;;;;;;16.35;36.37;103540.06;5057659;28;20037;-76
2022/03/18 00:07:09;;;;;;;20.63;7.18;;;;;;;16.35;36.33;103551.09;5058712;28;20035;-76
2022/03/18 00:09:34;;;;;;;20.63;7.38;;;;;;;16.35;36.22;103568.47;5058337;28;20382;-76
2022/03/18 00:12:00;;;;;;;25.92;7.40;;;;;;;16.34;36.27;103577.88;5021097;28;20029;-76
2022/03/18 00:14:26;;;;;;;24.27;8.18;;;;;;;16.29;36.44;103577.88;5038895;28;20474;-79
2022/03/18 00:16:52;;;;;;;22.00;6.93;;;;;;;16.25;36.32;103559.44;5038768;28;20036;-80
2022/03/18 00:19:17;;;;;;;24.65;7.32;;;;;;;16.19;36.50;103560.56;5038961;28;20029;-76
2022/03/18 00:21:43;;;;;;;23.85;8.30;;;;;;;16.16;35.90;103556.41;5038731;28;20037;-76
2022/03/18 00:24:09;;;;;;;21.70;7.15;;;;;;;16.16;36.01;103563.88;5021306;28;20026;-77
2022/03/18 00:26:35;;;;;;;24.58;6.97;;;;;;;16.05;36.13;103557.59;5038714;28;20049;-76
2022/03/18 00:29:01;;;;;;;20.77;6.93;;;;;;;15.98;36.34;103546.03;5038806;28;20379;-77
2022/03/18 00:31:28;;;;;;;18.23;6.05;;;;;;;15.98;36.03;103541.34;5020937;28;20079;-76
2022/03/18 00:33:54;;;;;;;19.42;6.88;;;;;;;16.02;36.13;103556.22;5038660;28;20029;-76
2022/03/18 00:36:20;;;;;;;36.67;7.65;;;;;;;15.96;36.04;103559.28;5020538;28;20502;-76
2022/03/18 00:38:45;;;;;;;21.45;7.82;;;;;;;15.92;36.27;103564.50;5038629;28;20395;-76
2022/03/18 00:41:11;;;;;;;15.65;6.60;;;;;;;15.85;35.98;103576.94;5038568;28;20476;-75
2022/03/18 00:43:37;;;;;;;23.92;6.55;;;;;;;15.83;36.17;103585.50;5020833;28;20036;-74
2022/03/18 00:46:02;;;;;;;25.83;7.95;;;;;;;15.75;36.43;103584.16;5020505;28;20036;-75
2022/03/18 00:53:56;;;;;;;21.90;7.80;;;;;;;15.69;36.08;103589.94;5038578;28;20033;-74
2022/03/18 00:56:21;;;;;;;24.40;8.02;;;;;;;15.65;36.29;103592.44;5036263;28;20037;-75
2022/03/18 00:58:47;;;;;;;21.58;8.07;;;;;;;15.64;36.31;103595.47;5017529;28;20124;-75
2022/03/18 01:01:13;;;;;;;14.50;6.93;;;;;;;15.61;36.34;103598.75;5035259;28;20037;-75
2022/03/18 01:03:38;;;;;;;16.05;7.60;;;;;;;15.62;36.14;103598.50;5017547;28;20033;-75
2022/03/18 01:06:04;;;;;;;18.45;6.57;;;;;;;15.59;35.80;103595.44;5035171;28;20037;-77
2022/03/18 01:08:30;;;;;;;21.92;7.72;;;;;;;15.56;36.21;103591.31;5035202;28;20036;-75
2022/03/18 01:10:56;;;;;;;21.25;8.32;;;;;;;15.52;36.12;103588.28;5035161;28;20052;-77
2022/03/18 01:13:22;;;;;;;19.90;6.75;;;;;;;15.51;36.07;103603.19;5017337;28;20526;-75
2022/03/18 01:15:48;;;;;;;20.15;7.28;;;;;;;15.50;36.12;103600.72;5035090;28;20034;-76
2022/03/18 01:18:13;;;;;;;20.58;6.88;;;;;;;15.48;35.91;103603.72;5034728;28;20376;-76
2022/03/18 01:20:39;;;;;;;19.52;7.05;;;;;;;15.43;36.15;103602.91;5034936;28;20035;-76
2022/03/18 01:23:07;;;;;;;22.15;8.43;;;;;;;15.37;36.10;103601.25;5034466;28;20116;-75
2022/03/18 01:25:34;;;;;;;24.50;7.63;;;;;;;15.33;36.24;103605.66;5034837;28;20457;-75
2022/03/18 01:28:03;;;;;;;15.07;7.20;;;;;;;15.29;35.93;103610.91;5016961;28;20385;-76
2022/03/18 01:30:29;;;;;;;17.77;6.88;;;;;;;15.24;35.93;103611.72;5034800;28;20034;-76
2022/03/18 01:32:55;;;;;;;23.73;8.57;;;;;;;15.18;35.97;103612.81;5034859;28;20449;-76
2022/03/18 01:35:22;;;;;;;24.65;7.07;;;;;;;15.17;35.92;103610.34;5034414;28;20029;-77
2022/03/18 01:37:47;;;;;;;33.10;9.27;;;;;;;15.11;36.09;103605.91;5016825;28;20388;-75
2022/03/18 01:40:13;;;;;;;20.45;7.93;;;;;;;15.11;35.99;103614.19;5034591;28;20022;-76
2022/03/18 01:42:39;;;;;;;19.58;6.90;;;;;;;15.05;35.92;103615.31;5034521;28;20545;-76
2022/03/18 01:45:05;;;;;;;19.20;7.68;;;;;;;15.03;35.88;103614.72;5034544;28;20026;-76
2022/03/18 01:47:32;;;;;;;26.98;8.40;;;;;;;15.03;36.08;103622.97;5034450;28;20384;-76
2022/03/18 01:49:58;;;;;;;19.35;6.53;;;;;;;14.99;36.26;103618.03;5034453;28;20021;-76
2022/03/18 01:52:24;;;;;;;18.15;6.63;;;;;;;14.97;35.80;103617.50;5034391;28;20026;-75
2022/03/18 01:54:51;;;;;;;22.90;7.03;;;;;;;14.96;35.88;103631.50;5034315;28;20034;-76
2022/03/18 01:57:22;;;;;;;22.20;7.90;;;;;;;14.96;35.80;103642.53;5034301;28;20033;-76
2022/03/18 01:59:50;;;;;;;22.85;7.53;;;;;;;14.93;35.85;103646.66;5016537;28;20472;-76
2022/03/18 02:02:17;;;;;;;24.35;8.55;;;;;;;14.87;35.87;103642.22;5034116;28;20037;-76
2022/03/18 02:04:44;;;;;;;19.70;6.57;;;;;;;14.88;35.95;103657.66;5034133;28;20111;-76
2022/03/18 02:07:11;;;;;;;20.05;8.43;;;;;;;14.86;35.94;103653.50;5034103;28;20022;-76
2022/03/18 02:09:38;;;;;;;26.30;8.90;;;;;;;14.83;35.95;103668.66;5033952;28;20033;-75
2022/03/18 02:12:04;;;;;;;14.27;6.78;;;;;;;14.82;35.81;103672.53;5034019;28;20036;-76
2022/03/18 02:14:34;;;;;;;15.88;6.93;;;;;;;14.82;36.03;103674.44;5033917;28;20022;-76
2022/03/18 02:17:02;;;;;;;19.33;7.32;;;;;;;14.80;35.94;103674.69;5033918;28;20034;-75
2022/03/18 02:19:28;;;;;;;17.73;7.47;;;;;;;14.88;35.67;103682.41;5033879;28;20494;-76
2022/03/18 02:21:55;;;;;;;18.30;6.72;;;;;;;14.77;35.91;103686.25;5033787;28;20026;-76
2022/03/18 02:24:21;;;;;;;22.23;8.07;;;;;;;14.71;35.60;103696.41;5033773;28;20022;-77
2022/03/18 02:26:49;;;;;;;15.73;6.03;;;;;;;14.66;35.85;103690.06;5033541;28;20128;-76
2022/03/18 02:29:15;;;;;;;17.85;6.75;;;;;;;14.62;35.67;103689.78;5033661;28;20021;-76
2022/03/18 02:31:43;;;;;;;18.77;8.55;;;;;;;14.56;35.66;103687.25;5033651;28;20026;-76
2022/03/18 02:34:08;;;;;;;18.27;6.50;;;;;;;14.55;35.86;103688.38;5033575;28;20438;-75
2022/03/18 02:36:34;;;;;;;15.30;6.40;;;;;;;14.39;35.94;103679.19;5033532;28;20018;-76
2022/03/18 02:38:59;;;;;;;19.25;7.35;;;;;;;14.38;35.89;103670.09;5016043;28;20080;-77
2022/03/18 02:41:25;;;;;;;22.77;7.78;;;;;;;14.34;36.00;103668.16;5033375;28;20391;-76
2022/03/18 02:43:51;;;;;;;18.38;7.38;;;;;;;14.37;35.82;103671.22;5033409;28;20025;-76
2022/03/18 02:46:17;;;;;;;17.38;7.63;;;;;;;14.38;35.81;103683.84;5033402;28;20147;-76
2022/03/18 02:48:42;;;;;;;20.80;7.22;;;;;;;14.33;35.82;103683.00;5015561;28;20388;-76
2022/03/18 02:51:08;;;;;;;23.33;7.50;;;;;;;14.30;35.79;103689.88;5015603;28;20026;-77
2022/03/18 02:53:35;;;;;;;15.32;6.72;;;;;;;14.28;35.82;103678.31;5033206;28;20109;-76
2022/03/18 02:56:03;;;;;;;20.98;6.80;;;;;;;14.25;35.84;103673.34;5033216;28;20034;-76
2022/03/18 02:58:29;;;;;;;16.25;6.50;;;;;;;14.24;35.58;103671.69;5033116;28;20380;-76
2022/03/18 03:00:55;;;;;;;17.45;6.82;;;;;;;14.22;35.59;103678.56;5033018;28;20032;-76
2022/03/18 03:03:21;;;;;;;15.48;6.88;;;;;;;14.20;35.79;103676.03;5033030;28;20021;-76
2022/03/18 03:08:34;;;;;;;16.20;5.85;;;;;;;14.13;35.93;103680.94;5033022;28;20502;-80
2022/03/18 03:10:59;;;;;;;15.15;6.60;;;;;;;14.06;35.85;103678.47;5032980;28;20029;-76
2022/03/18 03:13:25;;;;;;;19.90;7.88;;;;;;;14.12;35.76;103673.78;5032897;28;20037;-76
2022/03/18 03:15:51;;;;;;;18.70;6.72;;;;;;;14.12;35.81;103685.63;5032985;28;20455;-76
2022/03/18 03:18:16;;;;;;;16.08;6.95;;;;;;;14.12;35.85;103698.53;5032869;28;20032;-76
2022/03/18 03:20:42;;;;;;;19.55;7.60;;;;;;;14.10;35.89;103701.56;5032190;28;20021;-76
2022/03/18 03:23:09;;;;;;;13.85;6.97;;;;;;;14.09;35.81;103699.09;5032789;28;20040;-76
2022/03/18 03:25:35;;;;;;;12.32;6.70;;;;;;;14.06;36.02;103699.63;5032700;28;20025;-76
2022/03/18 03:28:00;;;;;;;17.38;6.38;;;;;;;14.01;35.83;103699.59;5032603;28;20053;-77
2022/03/18 03:30:26;;;;;;;19.63;8.07;;;;;;;13.93;35.97;103708.31;5032665;28;20029;-77
2022/03/18 03:32:52;;;;;;;18.77;6.82;;;;;;;13.88;35.99;103707.19;5032620;28;20037;-76
2022/03/18 03:35:18;;;;;;;21.35;7.22;;;;;;;13.85;35.85;103713.22;5032600;28;20029;-76
2022/03/18 03:37:44;;;;;;;16.25;6.78;;;;;;;13.74;36.07;103711.47;5032625;28;20030;-76
2022/03/18 03:40:14;;;;;;;18.52;7.28;;;;;;;13.73;36.13;103708.97;5032530;28;20163;-76
2022/03/18 03:42:43;;;;;;;19.02;7.45;;;;;;;13.71;36.14;103712.00;5032484;28;20500;-77
2022/03/18 03:45:10;;;;;;;19.13;6.85;;;;;;;13.73;35.90;103715.31;5032518;28;20029;-77
2022/03/18 03:47:40;;;;;;;17.65;6.72;;;;;;;13.71;36.08;103713.91;5032528;28;20030;-76
2022/03/18 03:50:07;;;;;;;18.42;7.95;;;;;;;13.69;36.07;103721.59;5032525;28;20037;-76
2022/03/18 03:52:34;;;;;;;19.08;6.95;;;;;;;13.67;36.04;103721.84;5032388;28;20155;-77
2022/03/18 03:55:05;;;;;;;14.43;6.88;;;;;;;13.65;36.03;103726.78;5032442;28;20025;-77
2022/03/18 03:57:30;;;;;;;20.23;7.30;;;;;;;13.67;36.05;103727.34;5032421;28;20029;-76
2022/03/18 03:59:56;;;;;;;17.40;6.95;;;;;;;13.66;36.16;103722.94;5032375;28;20460;-79
2022/03/18 04:02:22;;;;;;;15.98;6.95;;;;;;;13.69;36.14;103727.94;5032386;28;20087;-76
2022/03/18 04:04:48;;;;;;;17.52;7.45;;;;;;;13.67;36.08;103738.34;5032352;28;20052;-76
2022/03/18 04:07:15;;;;;;;19.95;7.22;;;;;;;13.67;36.05;103740.25;5032325;28;20079;-76
2022/03/18 04:09:41;;;;;;;19.38;7.18;;;;;;;13.61;36.08;103739.41;5032262;28;20030;-76
2022/03/18 04:12:07;;;;;;;19.52;7.05;;;;;;;13.58;36.05;103750.88;5032532;28;20449;-76
2022/03/18 04:14:32;;;;;;;17.10;6.72;;;;;;;13.55;36.18;103751.44;5032261;28;20026;-76
2022/03/18 04:16:58;;;;;;;30.33;8.10;;;;;;;13.56;36.00;103755.81;5032202;28;20025;-76
2022/03/18 04:19:24;;;;;;;14.43;6.35;;;;;;;13.54;36.13;103760.75;5032255;28;20026;-76
2022/03/18 04:21:49;;;;;;;17.90;6.45;;;;;;;13.53;36.13;103767.34;5032177;28;20427;-76
2022/03/18 04:24:15;;;;;;;22.55;8.38;;;;;;;13.49;36.24;103767.03;5032096;28;20026;-76
2022/03/18 04:26:41;;;;;;;20.30;7.53;;;;;;;13.46;36.17;103761.22;5010935;28;20386;-76
2022/03/18 04:29:08;;;;;;;20.25;6.38;;;;;;;13.47;36.08;103765.63;5012109;28;20030;-76
2022/03/18 04:31:35;;;;;;;16.35;7.00;;;;;;;13.45;36.24;103770.53;5012608;28;20562;-76
2022/03/18 04:34:00;;;;;;;19.95;6.57;;;;;;;13.38;36.16;103764.44;5016150;28;20034;-76
2022/03/18 04:36:26;;;;;;;20.63;6.70;;;;;;;13.36;36.16;103780.31;5016059;28;20051;-76
2022/03/18 04:38:51;;;;;;;23.52;7.57;;;;;;;13.39;36.30;103768.84;5014786;28;20034;-76
2022/03/18 04:41:17;;;;;;;19.13;7.55;;;;;;;13.27;36.20;103772.56;5015883;28;20080;-76
2022/03/18 04:43:43;;;;;;;14.80;6.07;;;;;;;13.31;36.30;103767.38;5015961;28;20392;-76
2022/03/18 04:46:09;;;;;;;17.17;6.28;;;;;;;13.36;36.39;103764.69;5015910;28;20026;-76
2022/03/18 04:48:34;;;;;;;14.65;6.97;;;;;;;13.31;36.21;103762.72;5015928;28;20113;-76
2022/03/18 04:51:00;;;;;;;16.70;6.72;;;;;;;13.35;36.21;103775.94;5015798;28;20026;-75
2022/03/18 04:53:26;;;;;;;18.77;6.85;;;;;;;13.31;36.45;103784.69;5015736;28;20084;-75
2022/03/18 04:55:51;;;;;;;19.98;7.13;;;;;;;13.31;36.48;103794.84;5015779;28;20052;-76
2022/03/18 04:58:17;;;;;;;17.58;6.72;;;;;;;13.33;36.12;103790.75;5015666;28;20611;-76
2022/03/18 05:00:43;;;;;;;14.85;7.03;;;;;;;13.30;36.12;103788.53;5015596;28;20030;-75
2022/03/18 05:03:10;;;;;;;16.35;7.30;;;;;;;13.32;36.31;103791.84;5015599;28;20388;-76
2022/03/18 05:05:37;;;;;;;13.80;6.78;;;;;;;13.32;36.13;103794.59;5031119;28;20040;-76
2022/03/18 05:08:03;;;;;;;24.23;7.75;;;;;;;13.29;36.27;103807.97;5035264;28;20036;-76
2022/03/18 05:10:30;;;;;;;18.67;7.13;;;;;;;13.30;36.10;103807.75;5035195;28;20403;-76
2022/03/18 05:12:56;;;;;;;16.02;7.68;;;;;;;13.22;36.24;103810.94;5035230;28;20040;-75
2022/03/18 05:15:23;;;;;;;24.13;5.82;;;;;;;13.21;36.17;103819.41;5035200;28;20079;-76
2022/03/18 05:17:52;;;;;;;16.38;7.00;;;;;;;13.18;36.19;103823.50;5035198;28;20033;-76
2022/03/18 05:20:18;;;;;;;16.75;7.03;;;;;;;13.13;36.33;103820.66;5035023;28;20125;-76
2022/03/18 05:22:48;;;;;;;15.88;7.03;;;;;;;13.11;36.10;103822.03;5034880;28;20491;-76
2022/03/18 05:25:13;;;;;;;15.93;6.65;;;;;;;13.09;36.24;103829.69;5035019;28;20029;-76
2022/03/18 05:27:44;;;;;;;17.85;6.75;;;;;;;13.02;36.24;103824.38;5051685;28;20411;-79
2022/03/18 05:30:13;;;;;;;14.13;5.50;;;;;;;12.98;36.52;103826.78;5054808;28;20476;-80
2022/03/18 05:32:40;;;;;;;15.07;6.80;;;;;;;12.96;36.19;103828.16;5054689;28;20502;-76
2022/03/18 05:35:06;;;;;;;11.52;6.00;;;;;;;12.95;36.16;103823.75;5054673;28;20022;-75
2022/03/18 05:37:31;;;;;;;19.10;6.65;;;;;;;12.90;36.47;103819.00;5054569;28;20537;-75
2022/03/18 05:39:57;;;;;;;14.88;6.78;;;;;;;12.90;36.36;103826.41;5054577;28;20021;-76
2022/03/18 05:42:23;;;;;;;17.08;7.18;;;;;;;12.92;36.49;103832.47;5053922;28;20108;-76
2022/03/18 05:44:48;;;;;;;18.05;6.65;;;;;;;12.89;36.58;103832.97;5054482;28;20021;-81
2022/03/18 05:47:14;;;;;;;13.85;5.53;;;;;;;12.89;36.16;103822.00;5054448;28;20021;-76
2022/03/18 05:49:40;;;;;;;19.25;6.72;;;;;;;12.81;36.34;103828.75;5054454;28;20029;-75
2022/03/18 05:52:06;;;;;;;14.50;6.32;;;;;;;12.79;36.34;103830.94;5054351;28;20024;-75
2022/03/18 05:54:31;;;;;;;13.73;6.32;;;;;;;12.74;36.50;103823.44;5054299;28;20021;-75
2022/03/18 05:56:57;;;;;;;18.25;6.85;;;;;;;12.75;36.34;103824.28;5054320;28;20103;-76
2022/03/18 05:59:28;;;;;;;15.27;6.32;;;;;;;12.66;36.36;103826.63;5036296;28;20021;-75
2022/03/18 06:01:56;;;;;;;11.20;5.28;;;;;;;12.61;36.30;103818.31;5054093;28;20078;-75
2022/03/18 06:04:22;;;;;;;18.48;6.53;;;;;;;12.55;36.10;103824.84;5036205;28;20029;-75
2022/03/18 06:06:49;;;;;;;16.25;5.97;;;;;;;12.55;36.37;103829.50;5054046;28;20017;-75
2022/03/18 06:12:04;;;;;;;11.55;6.75;;;;;;;12.52;36.35;103836.28;5054244;28;20023;-75
2022/03/18 06:14:30;;;;;;;21.77;7.28;;;;;;;12.43;36.40;103829.56;5053911;28;20029;-75
2022/03/18 06:16:59;;;;;;;18.90;6.85;;;;;;;12.43;36.43;103830.41;5053917;28;20020;-74
2022/03/18 06:19:26;;;;;;;19.17;6.20;;;;;;;12.31;36.73;103837.03;5036017;28;20025;-74
2022/03/18 06:21:52;;;;;;;17.90;6.35;;;;;;;12.40;36.54;103832.81;5053533;28;20520;-75
2022/03/18 06:24:19;;;;;;;14.57;5.82;;;;;;;12.37;36.36;103833.31;5035788;28;20033;-75
2022/03/18 06:26:44;;;;;;;11.10;5.72;;;;;;;12.39;36.34;103837.47;5053477;28;20052;-75
2022/03/18 06:29:10;;;;;;;11.73;5.47;;;;;;;12.38;36.79;103845.94;5053621;28;20388;-75
2022/03/18 06:31:37;;;;;;;15.40;6.90;;;;;;;12.42;36.50;103836.97;5053539;28;20040;-75
2022/03/18 06:34:03;;;;;;;15.60;6.00;;;;;;;12.48;36.34;103843.38;5053575;28;20025;-75
2022/03/18 06:36:30;;;;;;;10.32;5.03;;;;;;;12.50;36.47;103854.91;5053495;28;20074;-75
2022/03/18 06:38:55;;;;;;;17.67;6.38;;;;;;;12.43;36.44;103848.78;5053424;28;20067;-75
2022/03/18 06:41:22;;;;;;;18.85;6.47;;;;;;;12.43;36.54;103848.78;5053334;28;20476;-75
2022/03/18 06:43:49;;;;;;;18.10;5.97;;;;;;;12.43;36.54;103848.78;5053317;28;20063;-75
2022/03/18 06:46:16;;;;;;;10.55;5.57;;;;;;;12.40;36.41;103860.25;5052851;28;20025;-81
2022/03/18 06:48:42;;;;;;;13.35;5.18;;;;;;;12.42;36.88;103858.09;5035338;28;20025;-76
2022/03/18 06:51:08;;;;;;;19.02;7.68;;;;;;;12.39;36.80;103851.19;5053165;28;20545;-76
2022/03/18 06:53:34;;;;;;;21.55;6.15;;;;;;;12.50;36.55;103854.91;5035257;28;20021;-81
2022/03/18 06:56:00;;;;;;;20.63;6.13;;;;;;;12.49;36.78;103865.06;5052309;28;20537;-76
2022/03/18 06:58:27;;;;;;;15.48;5.82;;;;;;;12.58;36.60;103867.38;5052967;28;20025;-81
2022/03/18 07:00:54;;;;;;;21.98;6.90;;;;;;;12.60;37.06;103874.25;5034969;28;20021;-76
2022/03/18 07:03:19;;;;;;;19.23;6.53;;;;;;;12.60;36.95;103879.75;5035092;28;20025;-78
2022/03/18 07:05:45;;;;;;;16.67;6.68;;;;;;;12.71;36.83;103886.25;5052942;28;20021;-76
2022/03/18 07:08:10;;;;;;;15.20;5.95;;;;;;;12.78;36.73;103885.00;5052926;28;20379;-76
2022/03/18 07:10:36;;;;;;;20.20;5.53;;;;;;;12.73;36.73;103884.91;5052778;28;20024;-75
2022/03/18 07:13:02;;;;;;;18.23;5.55;;;;;;;12.75;36.82;103880.00;5052910;28;20060;-75
2022/03/18 07:15:27;;;;;;;24.35;7.10;;;;;;;12.79;36.96;103888.56;5052794;28;20029;-75
2022/03/18 07:17:58;;;;;;;16.33;6.25;;;;;;;12.90;36.54;103878.56;5052797;28;20122;-76
2022/03/18 07:20:29;;;;;;;16.27;5.40;;;;;;;12.92;36.84;103882.72;5052737;28;20024;-76
2022/03/18 07:23:12;;;;;;;17.25;5.35;;;;;;;12.92;37.00;103887.34;5052644;28;20082;-76
2022/03/18 07:25:40;;;;;;;16.35;6.43;;;;;;;13.09;36.90;103888.16;5052530;28;20035;-76
2022/03/18 07:28:09;;;;;;;17.60;5.18;;;;;;;13.22;36.82;103882.31;5052581;28;20021;-76
2022/03/18 07:30:37;;;;;;;14.93;5.93;;;;;;;13.19;37.19;103874.56;5052529;28;20025;-77
2022/03/18 07:33:03;;;;;;;15.20;5.68;;;;;;;13.36;36.97;103879.19;5052518;28;20040;-76
2022/03/18 07:35:30;;;;;;;19.17;7.32;;;;;;;13.49;36.94;103870.56;5052518;28;20122;-75
2022/03/18 07:37:56;;;;;;;17.02;6.57;;;;;;;13.55;37.10;103869.56;5052460;28;20032;-81
2022/03/18 07:40:22;;;;;;;19.20;5.95;;;;;;;13.67;37.10;103867.47;5052499;28;20032;-75
2022/03/18 07:42:55;;;;;;;15.48;5.97;;;;;;;13.74;37.24;103878.28;5052415;28;20028;-81
2022/03/18 07:45:22;;;;;;;14.90;4.93;;;;;;;13.78;37.33;103872.00;5034603;28;20024;-79
2022/03/18 07:47:52;;;;;;;17.17;5.68;;;;;;;13.88;37.57;103865.78;5034303;28;20056;-79
2022/03/18 07:50:22;;;;;;;22.02;5.88;;;;;;;14.05;37.46;103855.50;5052164;28;20482;-76
2022/03/18 07:52:51;;;;;;;;;;;;;;;14.05;38.77;103851.91;5052753;28;20483;-81
2022/03/18 07:55:18;;;;;;;20.87;5.67;;;;;;;14.34;37.69;103850.50;5031938;28;19923;-77
2022/03/18 07:57:44;;;;;;;21.63;5.45;;;;;;;14.53;37.56;103862.00;5052048;28;20353;-79
2022/03/18 08:00:14;;;;;;;17.33;5.15;;;;;;;14.75;37.13;103864.63;5052092;28;20055;-77
2022/03/18 08:02:40;;;;;;;23.80;6.68;;;;;;;14.91;37.24;103851.78;5051991;28;20498;-80
2022/03/18 08:05:07;;;;;;;18.23;6.38;;;;;;;15.05;37.52;103858.47;5034017;28;20544;-78
2022/03/18 08:07:35;;;;;;;13.82;5.22;;;;;;;15.27;37.36;103869.31;5055539;28;20391;-75
2022/03/18 08:10:01;;;;;;;22.88;6.28;;;;;;;15.42;37.36;103874.88;5056063;28;20021;-76
2022/03/18 08:12:30;;;;;;;15.15;6.10;;;;;;;15.53;37.56;103876.53;5055982;28;20376;-78
2022/03/18 08:14:58;;;;;;;18.65;5.82;;;;;;;15.70;37.47;103883.78;5035460;28;20025;-79
2022/03/18 08:17:23;;;;;;;24.88;6.07;;;;;;;15.86;37.67;103882.72;5055755;28;20025;-82
2022/03/18 08:19:53;;;;;;;22.10;6.20;;;;;;;16.04;37.56;103884.16;5055678;28;20036;-81
2022/03/18 08:22:22;;;;;;;19.88;5.55;;;;;;;16.13;37.68;103884.44;5055668;28;20035;-76
2022/03/18 08:24:49;;;;;;;16.92;5.72;;;;;;;16.28;37.93;103892.72;5055721;28;20100;-77
2022/03/18 08:27:16;;;;;;;23.77;5.65;;;;;;;16.39;38.12;103888.84;5052849;28;20124;-75
2022/03/18 08:29:42;;;;;;;21.42;5.22;;;;;;;16.53;37.96;103895.47;5055579;28;20028;-76
2022/03/18 08:32:12;;;;;;;25.75;6.32;;;;;;;16.68;38.00;103893.78;5055619;28;20025;-79
2022/03/18 08:34:39;;;;;;;20.83;5.97;;;;;;;16.78;38.24;103896.59;5053226;28;20024;-77
2022/03/18 08:37:05;;;;;;;20.35;4.95;;;;;;;16.96;37.90;103884.13;5055419;28;20024;-81
2022/03/18 08:39:35;;;;;;;19.08;5.82;;;;;;;17.04;38.24;103891.81;5055439;28;20039;-80
2022/03/18 08:42:00;;;;;;;20.48;5.50;;;;;;;17.17;38.23;103892.06;5055334;28;20079;-81
2022/03/18 08:44:26;;;;;;;16.10;4.80;;;;;;;17.26;38.56;103897.00;5055400;28;20033;-75
2022/03/18 08:46:52;;;;;;;28.42;6.10;;;;;;;17.39;38.63;103896.41;5055184;28;20027;-76
2022/03/18 08:49:17;;;;;;;23.65;7.70;;;;;;;17.57;38.18;103900.44;5055240;28;20090;-75
2022/03/18 08:51:43;;;;;;;18.65;5.03;;;;;;;17.71;38.10;103902.34;5055216;28;20055;-75
2022/03/18 08:54:08;;;;;;;18.80;4.88;;;;;;;17.80;38.48;103905.34;5055502;28;20029;-76
2022/03/18 08:56:34;;;;;;;25.85;6.72;;;;;;;17.83;38.61;103913.03;5055098;28;20025;-76
2022/03/18 08:59:03;;;;;;;29.25;7.07;;;;;;;18.03;38.44;103910.16;5072877;28;20144;-77
2022/03/18 09:01:29;;;;;;;20.85;5.45;;;;;;;18.18;38.47;103912.00;5068401;28;20021;-75
2022/03/18 09:03:54;;;;;;;34.03;7.22;;;;;;;18.33;38.32;103911.06;5055151;28;20025;-75
2022/03/18 09:06:20;;;;;;;29.02;7.00;;;;;;;18.34;38.84;103920.19;5055262;28;20024;-75
2022/03/18 09:08:46;;;;;;;29.08;6.15;;;;;;;18.49;38.75;103922.81;5055283;28;20062;-77
2022/03/18 09:11:11;;;;;;;30.83;10.48;;;;;;;18.68;38.49;103918.25;5055163;28;20106;-75
2022/03/18 09:13:37;;;;;;;30.00;6.45;;;;;;;18.76;38.54;103901.00;5055168;28;20031;-76
2022/03/18 09:16:04;;;;;;;28.08;6.28;;;;;;;18.98;38.39;103908.00;5055118;28;20025;-75
2022/03/18 09:18:30;;;;;;;35.05;6.20;;;;;;;19.07;38.42;103903.44;5054200;28;20409;-80
2022/03/18 09:20:56;;;;;;;23.88;5.30;;;;;;;19.10;38.37;103908.38;5054834;28;20025;-76
2022/03/18 09:23:22;;;;;;;32.47;8.07;;;;;;;19.08;38.77;103907.88;5054903;28;20382;-75
2022/03/18 09:25:48;;;;;;;21.67;6.63;;;;;;;19.24;38.48;103912.09;5054642;28;20028;-75
2022/03/18 09:28:13;;;;;;;25.77;5.13;;;;;;;19.47;38.23;103907.66;5037026;28;20065;-75
2022/03/18 09:30:40;;;;;;;23.98;6.47;;;;;;;19.54;38.46;103913.66;5054865;28;20029;-75
2022/03/18 09:33:05;;;;;;;21.23;5.47;;;;;;;19.61;38.39;103913.34;5054277;28;20086;-80
2022/03/18 09:35:31;;;;;;;16.63;4.65;;;;;;;19.67;38.50;103912.16;5054271;28;20021;-77
2022/03/18 09:37:56;;;;;;;19.80;6.05;;;;;;;19.71;38.56;103907.63;5054243;28;20082;-81
2022/03/18 09:40:22;;;;;;;24.33;5.85;;;;;;;19.80;38.69;103916.09;5054121;28;20025;-76
2022/03/18 09:42:56;;;;;;;17.15;4.20;;;;;;;19.81;38.75;103910.28;5054438;28;20032;-76
2022/03/18 09:45:23;;;;;;;19.45;5.88;;;;;;;19.89;38.64;103912.38;5054035;28;20040;-77
2022/03/18 09:47:51;;;;;;;15.48;4.82;;;;;;;19.91;38.59;103917.63;5036188;28;20033;-77
2022/03/18 09:50:17;;;;;;;25.10;5.78;;;;;;;19.93;38.68;103920.91;5054011;28;20032;-82
2022/03/18 09:52:44;;;;;;;30.40;7.28;;;;;;;20.11;38.43;103925.66;5053884;28;20017;-76
2022/03/18 09:55:10;;;;;;;22.05;5.47;;;;;;;20.23;38.35;103919.63;5053932;28;20677;-76
2022/03/18 09:57:36;;;;;;;27.08;6.82;;;;;;;20.16;38.42;103916.41;5054015;28;20052;-74
2022/03/18 10:00:02;;;;;;;36.53;7.00;;;;;;;20.26;38.62;103919.03;5053757;28;20684;-75
2022/03/18 10:02:30;;;;;;;21.65;5.22;;;;;;;20.40;38.48;103919.91;5053638;28;20025;-75
2022/03/18 10:05:00;;;;;;;34.38;6.43;;;;;;;20.38;38.76;103922.16;5053798;28;20025;-74
2022/03/18 10:07:27;;;;;;;28.45;7.10;;;;;;;20.48;38.58;103916.47;5050983;28;20111;-75
2022/03/18 10:10:02;;;;;;;28.63;7.53;;;;;;;20.33;39.11;103921.41;5053609;28;20036;-73
2022/03/18 10:12:35;;;;;;;28.23;6.55;;;;;;;20.59;38.85;103921.84;5051167;28;20049;-76
2022/03/18 10:15:16;;;;;;;35.67;8.70;;;;;;;20.49;38.97;103922.84;5054008;28;20151;-73
2022/03/18 10:17:50;;;;;;;27.77;5.97;;;;;;;20.58;38.85;103922.97;5053218;28;20025;-75
2022/03/18 10:20:38;;;;;;;26.90;5.90;;;;;;;20.91;38.49;103919.00;5035628;28;20024;-75
2022/03/18 10:23:15;;;;;;;24.58;5.97;;;;;;;20.81;38.75;103913.66;5033391;28;20032;-76
2022/03/18 10:25:50;;;;;;;25.92;5.22;;;;;;;21.02;37.98;103920.47;5050852;28;20052;-77
2022/03/18 10:28:43;;;;;;;23.58;5.18;;;;;;;21.09;38.08;103919.25;5053437;28;20024;-80
2022/03/18 10:31:22;;;;;;;25.83;5.63;;;;;;;21.11;38.18;103923.38;5034349;28;20025;-76
2022/03/18 10:37:05;;;;;;;27.30;7.25;;;;;;;21.23;38.44;103922.81;5051865;28;20039;-81
2022/03/18 10:39:37;;;;;;;35.88;7.93;;;;;;;21.43;38.16;103918.84;5052188;28;20032;-81
2022/03/18 10:42:09;;;;;;;23.65;6.45;;;;;;;21.52;37.67;103916.97;5050830;28;20028;-76
2022/03/18 10:44:48;;;;;;;17.85;4.80;;;;;;;21.58;38.05;103910.16;5052977;28;20021;-75
2022/03/18 10:47:36;;;;;;;23.17;4.82;;;;;;;21.46;37.88;103907.94;5053326;28;20024;-80
2022/03/18 10:50:11;;;;;;;26.42;6.43;;;;;;;21.62;37.70;103910.38;5050897;28;20364;-83
2022/03/18 10:52:40;;;;;;;23.65;6.30;;;;;;;21.65;37.60;103909.75;5034995;28;20115;-78
2022/03/18 10:55:24;;;;;;;28.00;6.53;;;;;;;21.79;37.43;103911.34;5034860;28;20053;-75
2022/03/18 10:57:55;;;;;;;33.47;6.78;;;;;;;21.86;37.48;103908.16;5051608;28;20029;-75
2022/03/18 11:00:24;;;;;;;32.83;7.68;;;;;;;21.93;37.51;103916.06;5032557;28;20490;-74
2022/03/18 11:02:51;;;;;;;27.42;6.72;;;;;;;21.76;37.31;103908.38;5034692;28;20416;-74
2022/03/18 11:05:21;;;;;;;41.15;8.20;;;;;;;22.05;36.86;103906.00;5034744;28;20024;-77
2022/03/18 11:07:47;;;;;;;28.90;6.65;;;;;;;21.97;37.29;103912.31;5052594;28;20036;-77
2022/03/18 11:13:02;;;;;;;23.05;6.20;;;;;;;21.97;36.59;103923.47;5049827;28;20070;-75
2022/03/18 11:15:30;;;;;;;26.80;7.50;;;;;;;21.96;36.53;103916.25;5034740;28;20059;-82
2022/03/18 11:17:57;;;;;;;20.50;4.68;;;;;;;21.96;36.85;103913.47;5052458;28;20025;-75
2022/03/18 11:20:26;;;;;;;20.48;5.75;;;;;;;21.88;36.75;103917.00;5052528;28;20020;-78
2022/03/18 11:22:51;;;;;;;19.45;6.10;;;;;;;21.82;36.72;103910.72;5052664;28;20082;-79
2022/03/18 11:25:19;;;;;;;18.48;5.57;;;;;;;21.78;36.85;103911.69;5052228;28;20017;-82
2022/03/18 11:27:46;;;;;;;27.55;7.95;;;;;;;21.72;36.58;103912.94;5052197;28;20041;-77
2022/03/18 11:30:35;;;;;;;35.75;9.82;;;;;;;21.51;36.99;103907.81;5052278;28;20086;-82
2022/03/18 11:33:10;;;;;;;41.00;7.78;;;;;;;21.96;36.31;103915.44;5039014;28;20033;-76
2022/03/18 11:35:48;;;;;;;29.23;7.25;;;;;;;21.90;36.84;103920.28;5034280;28;20033;-80